createdAt,value
2023-05-10T00:02:08.495Z,6.40
2023-05-10T00:04:36.532Z,6.80
2023-05-10T00:07:04.558Z,7.50
2023-05-10T00:09:32.608Z,8.10
2023-05-10T00:12:00.905Z,7.30
2023-05-10T00:14:29.054Z,7.50
2023-05-10T00:16:57.188Z,8.10
2023-05-10T00:19:26.396Z,8.30
2023-05-10T00:21:54.456Z,8.20
2023-05-10T00:24:22.419Z,7.40
2023-05-10T00:26:50.566Z,7.40
2023-05-10T00:29:18.606Z,7.60
2023-05-10T00:31:46.809Z,8.10
2023-05-10T00:34:14.899Z,7.20
2023-05-10T00:36:43.114Z,7.70
2023-05-10T00:39:13.451Z,7.20
2023-05-10T00:41:41.626Z,7.00
2023-05-10T00:44:10.231Z,6.60
2023-05-10T00:46:38.303Z,7.00
2023-05-10T00:49:07.466Z,7.10
2023-05-10T00:51:36.215Z,7.30
2023-05-10T00:54:04.535Z,6.90
2023-05-10T00:56:32.948Z,6.40
2023-05-10T00:59:03.129Z,6.20
2023-05-10T01:01:31.785Z,6.10
2023-05-10T01:04:00.771Z,6.80
2023-05-10T01:06:29.491Z,7.70
2023-05-10T01:08:58.308Z,7.30
2023-05-10T01:11:27.844Z,6.60
2023-05-10T01:13:58.728Z,7.10
2023-05-10T01:16:27.865Z,7.40
2023-05-10T01:18:56.283Z,7.00
2023-05-10T01:21:43.283Z,6.70
2023-05-10T01:24:38.656Z,6.90
2023-05-10T01:27:45.895Z,7.00
2023-05-10T01:30:39.103Z,6.10
2023-05-10T01:36:14.947Z,6.70
2023-05-10T01:39:00.454Z,7.00
2023-05-10T01:41:54.077Z,6.60
2023-05-10T01:44:43.218Z,6.10
2023-05-10T01:47:16.800Z,7.20
2023-05-10T01:49:49.056Z,6.80
2023-05-10T01:52:23.151Z,6.60
2023-05-10T01:54:56.969Z,7.00
2023-05-10T01:57:33.662Z,7.10
2023-05-10T02:00:04.734Z,7.10
2023-05-10T02:02:48.849Z,6.90
2023-05-10T02:05:19.886Z,6.70
2023-05-10T02:07:50.360Z,6.00
2023-05-10T02:10:20.285Z,6.10
2023-05-10T02:12:50.003Z,6.40
2023-05-10T02:15:24.818Z,6.40
2023-05-10T02:17:55.539Z,6.40
2023-05-10T02:20:25.516Z,6.30
2023-05-10T02:22:57.047Z,6.70
2023-05-10T02:25:27.050Z,6.70
2023-05-10T02:27:57.154Z,5.90
2023-05-10T02:30:26.370Z,6.10
2023-05-10T02:32:54.886Z,6.20
2023-05-10T02:35:24.528Z,6.60
2023-05-10T02:37:54.284Z,6.40
2023-05-10T02:40:25.130Z,5.80
2023-05-10T02:42:57.420Z,5.70
2023-05-10T02:45:31.530Z,6.10
2023-05-10T02:48:00.947Z,6.30
2023-05-10T02:50:31.040Z,6.20
2023-05-10T02:53:07.825Z,5.70
2023-05-10T02:55:41.681Z,5.60
2023-05-10T02:58:09.759Z,6.30
2023-05-10T03:00:38.115Z,6.00
2023-05-10T03:03:06.334Z,6.20
2023-05-10T03:05:35.022Z,6.30
2023-05-10T03:08:05.928Z,6.30
2023-05-10T03:10:39.208Z,5.60
2023-05-10T03:13:21.472Z,6.40
2023-05-10T03:16:13.897Z,5.80
2023-05-10T03:19:17.588Z,5.90
2023-05-10T03:21:52.398Z,5.30
2023-05-10T03:24:24.872Z,6.60
2023-05-10T03:26:57.260Z,5.90
2023-05-10T03:29:27.918Z,5.70
2023-05-10T03:31:56.322Z,5.70
2023-05-10T03:34:25.685Z,5.80
2023-05-10T03:36:54.146Z,5.90
2023-05-10T03:39:22.453Z,6.10
2023-05-10T03:41:53.254Z,6.20
2023-05-10T03:44:21.348Z,6.00
2023-05-10T03:46:49.858Z,5.90
2023-05-10T03:49:18.739Z,6.60
2023-05-10T03:51:47.294Z,5.80
2023-05-10T03:54:15.872Z,5.70
2023-05-10T03:56:44.093Z,6.00
2023-05-10T03:59:13.655Z,5.60
2023-05-10T04:05:38.526Z,5.70
2023-05-10T04:08:07.609Z,5.70
2023-05-10T04:10:35.605Z,6.30
2023-05-10T04:13:03.687Z,5.20
2023-05-10T04:15:31.884Z,6.40
2023-05-10T04:17:59.932Z,5.60
2023-05-10T04:20:28.284Z,5.90
2023-05-10T04:22:56.256Z,5.60
2023-05-10T04:25:24.847Z,5.70
2023-05-10T04:27:54.282Z,5.80
2023-05-10T04:34:36.237Z,5.00
2023-05-10T04:37:04.197Z,4.80
2023-05-10T04:39:32.297Z,5.10
2023-05-10T04:42:00.324Z,4.90
2023-05-10T04:44:28.292Z,4.70
2023-05-10T08:12:09.125Z,1.60
2023-05-10T08:14:37.687Z,1.90
2023-05-10T08:17:05.987Z,1.50
2023-05-10T08:19:33.969Z,1.50
2023-05-10T08:22:02.065Z,1.60
2023-05-10T08:24:31.151Z,1.40
2023-05-10T08:26:59.383Z,1.90
2023-05-10T08:29:30.367Z,1.70
2023-05-10T08:31:58.565Z,2.20
2023-05-10T08:34:26.893Z,1.50
2023-05-10T08:36:55.157Z,1.70
2023-05-10T08:39:30.385Z,2.10
2023-05-10T08:42:02.965Z,1.60
2023-05-10T08:44:36.655Z,1.70
2023-05-10T08:47:07.825Z,1.90
2023-05-10T08:49:37.404Z,1.50
2023-05-10T08:52:08.323Z,1.80
2023-05-10T08:54:37.540Z,1.40
2023-05-10T08:57:05.912Z,2.00
2023-05-10T08:59:34.270Z,1.50
2023-05-10T09:02:03.215Z,1.80
2023-05-10T09:04:32.277Z,1.70
2023-05-10T09:07:00.609Z,1.60
2023-05-10T09:09:29.236Z,1.50
2023-05-10T09:11:58.010Z,1.80
2023-05-10T09:14:27.073Z,1.40
2023-05-10T09:16:56.368Z,1.80
2023-05-10T09:19:24.609Z,1.40
2023-05-10T09:21:52.680Z,1.70
2023-05-10T09:24:20.848Z,1.50
2023-05-10T09:26:49.853Z,1.60
2023-05-10T09:29:18.251Z,1.80
2023-05-10T09:31:56.152Z,1.80
2023-05-10T09:34:30.970Z,1.80
2023-05-10T09:37:02.520Z,1.50
2023-05-10T09:39:35.358Z,1.90
2023-05-10T09:42:10.942Z,1.60
2023-05-10T09:44:39.397Z,1.30
2023-05-10T09:47:07.515Z,1.40
2023-05-10T09:49:36.165Z,2.20
2023-05-10T09:52:06.746Z,1.60
2023-05-10T09:54:35.435Z,1.40
2023-05-10T09:57:04.520Z,1.60
2023-05-10T09:59:58.569Z,1.60
2023-05-10T10:02:30.406Z,1.40
2023-05-10T10:05:04.156Z,1.60
2023-05-10T10:07:33.074Z,1.60
2023-05-10T10:10:01.708Z,0.90
2023-05-10T10:12:30.002Z,1.80
2023-05-10T10:14:58.686Z,1.50
2023-05-10T10:17:29.235Z,1.70
2023-05-10T10:19:58.432Z,1.30
2023-05-10T10:22:26.856Z,1.70
2023-05-10T10:24:56.342Z,1.50
2023-05-10T10:27:46.209Z,1.60
2023-05-10T10:30:51.097Z,1.50
2023-05-10T10:33:28.861Z,1.90
2023-05-10T10:36:00.191Z,1.20
2023-05-10T10:38:47.528Z,1.60
2023-05-10T10:41:32.692Z,1.70
2023-05-10T10:44:40.356Z,1.70
2023-05-10T10:47:24.317Z,1.40
2023-05-10T10:50:01.934Z,1.80
2023-05-10T10:52:34.783Z,1.50
2023-05-10T10:55:08.203Z,1.30
2023-05-10T10:57:42.319Z,1.30
2023-05-10T11:04:47.444Z,1.80
2023-05-10T11:07:20.077Z,1.70
2023-05-10T11:09:49.004Z,1.20
2023-05-10T11:12:17.292Z,1.70
2023-05-10T11:14:51.185Z,1.60
2023-05-10T11:17:27.981Z,1.30
2023-05-10T11:20:10.149Z,1.30
2023-05-10T11:25:21.109Z,1.60
2023-05-10T11:27:49.492Z,2.00
2023-05-10T11:30:18.709Z,1.50
2023-05-10T11:32:47.215Z,1.70
2023-05-10T11:35:16.493Z,1.50
2023-05-10T11:37:49.240Z,1.20
2023-05-10T11:40:17.379Z,1.70
2023-05-10T11:42:46.393Z,1.60
2023-05-10T11:45:14.529Z,1.40
2023-05-10T11:47:44.486Z,1.70
2023-05-10T11:50:12.600Z,1.40
2023-05-10T11:52:40.711Z,1.60
2023-05-10T11:55:09.016Z,1.50
2023-05-10T11:57:39.577Z,1.50
2023-05-10T12:00:08.643Z,1.50
2023-05-10T12:02:36.771Z,1.40
2023-05-10T12:05:06.938Z,1.60
2023-05-10T12:07:35.314Z,1.90
2023-05-10T12:10:10.146Z,1.50
2023-05-10T12:12:43.239Z,1.70
2023-05-10T12:15:25.868Z,2.40
2023-05-10T12:17:53.966Z,1.60
2023-05-10T12:20:23.843Z,1.70
2023-05-10T12:22:58.965Z,1.50
2023-05-10T12:25:32.972Z,1.80
2023-05-10T12:28:04.636Z,1.60
2023-05-10T12:30:34.544Z,1.50
2023-05-10T12:33:08.353Z,1.40
2023-05-10T12:35:51.987Z,1.50
2023-05-10T12:38:39.383Z,1.40
2023-05-10T12:41:10.331Z,2.00
2023-05-10T12:43:41.335Z,1.70
2023-05-10T12:46:18.319Z,1.50
2023-05-10T12:48:47.518Z,1.70
2023-05-10T12:51:20.466Z,1.70
2023-05-10T12:53:49.731Z,1.60
2023-05-10T12:56:17.950Z,1.90
2023-05-10T12:58:49.268Z,1.40
2023-05-10T13:01:17.694Z,1.50
2023-05-10T13:03:45.696Z,1.70
2023-05-10T13:06:15.154Z,1.80
2023-05-10T13:08:43.307Z,1.90
2023-05-10T13:11:11.465Z,1.80
2023-05-10T13:13:39.484Z,1.40
2023-05-10T13:16:08.113Z,1.40
2023-05-10T13:18:36.425Z,1.50
2023-05-10T13:21:06.656Z,2.30
2023-05-10T13:23:35.606Z,1.70
2023-05-10T13:26:03.915Z,1.80
2023-05-10T13:28:31.864Z,1.50
2023-05-10T13:31:01.138Z,1.70
2023-05-10T13:33:29.685Z,1.40
2023-05-10T13:35:57.681Z,1.50
2023-05-10T13:38:25.852Z,1.70
2023-05-10T13:40:54.316Z,1.70
2023-05-10T13:43:23.095Z,1.30
2023-05-10T13:45:51.330Z,1.80
2023-05-10T13:48:19.439Z,1.50
2023-05-10T13:50:48.298Z,1.80
2023-05-10T13:53:16.848Z,1.60
2023-05-10T13:55:46.243Z,1.40
2023-05-10T13:58:14.464Z,1.80
2023-05-10T14:00:42.973Z,1.50
2023-05-10T14:03:12.409Z,1.50
2023-05-10T14:05:42.031Z,1.60
2023-05-10T14:08:10.991Z,1.40
2023-05-10T14:10:39.156Z,1.40
2023-05-10T14:13:07.532Z,1.40
2023-05-10T14:15:35.774Z,1.50
2023-05-10T14:18:04.122Z,1.70
2023-05-10T14:20:33.277Z,1.60
2023-05-10T14:23:01.451Z,2.00
2023-05-10T14:25:30.032Z,1.60
2023-05-10T14:27:58.156Z,1.40
2023-05-10T14:30:27.288Z,1.50
2023-05-10T14:32:55.444Z,1.60
2023-05-10T14:35:23.873Z,1.50
2023-05-10T14:37:52.222Z,1.60
2023-05-10T14:40:20.243Z,1.40
2023-05-10T14:42:48.223Z,1.50
2023-05-10T14:45:17.178Z,1.60
2023-05-10T14:47:45.460Z,1.50
2023-05-10T14:50:24.733Z,1.70
2023-05-10T14:53:01.488Z,2.10
2023-05-10T14:55:29.981Z,2.60
2023-05-10T14:57:59.283Z,1.60
2023-05-10T15:00:31.355Z,1.60
2023-05-10T15:03:00.200Z,2.40
2023-05-10T15:05:28.910Z,2.10
2023-05-10T15:07:57.280Z,1.60
2023-05-10T15:10:25.381Z,1.50
2023-05-10T15:12:53.532Z,1.00
2023-05-10T15:15:21.561Z,1.90
2023-05-10T15:17:49.743Z,1.80
2023-05-10T15:20:17.858Z,1.40
2023-05-10T15:22:45.878Z,1.50
2023-05-10T15:25:15.526Z,1.60
2023-05-10T15:27:47.115Z,1.40
2023-05-10T15:30:15.296Z,1.30
2023-05-10T15:32:43.887Z,1.70
2023-05-10T15:35:17.820Z,1.60
2023-05-10T15:37:50.344Z,1.70
2023-05-10T15:40:18.527Z,1.30
2023-05-10T15:42:46.890Z,1.40
2023-05-10T15:45:16.380Z,1.40
2023-05-10T15:47:45.737Z,1.30
2023-05-10T15:50:15.988Z,1.50
2023-05-10T15:52:43.995Z,1.90
2023-05-10T15:55:15.509Z,1.60
2023-05-10T15:57:44.206Z,1.10
2023-05-10T16:00:13.428Z,1.30
2023-05-10T16:02:41.817Z,1.50
2023-05-10T16:05:10.330Z,1.50
2023-05-10T16:07:38.487Z,1.40
2023-05-10T16:10:07.291Z,1.60
2023-05-10T16:12:35.622Z,1.50
2023-05-10T16:15:04.846Z,1.80
2023-05-10T16:17:33.132Z,1.50
2023-05-10T16:20:01.372Z,1.30
2023-05-10T16:22:30.203Z,1.30
2023-05-10T16:24:58.343Z,1.20
2023-05-10T16:27:28.799Z,1.20
2023-05-10T16:29:56.822Z,1.50
2023-05-10T16:32:25.514Z,1.90
2023-05-10T16:34:55.039Z,1.20
2023-05-10T16:37:23.101Z,1.40
2023-05-10T16:39:51.185Z,1.70
2023-05-10T16:42:19.505Z,1.40
2023-05-10T16:44:47.657Z,1.50
2023-05-10T16:47:16.704Z,1.60
2023-05-10T16:49:45.032Z,1.60
2023-05-10T16:52:13.172Z,1.50
2023-05-10T16:54:41.283Z,1.40
2023-05-10T16:57:09.459Z,1.30
2023-05-10T16:59:37.668Z,1.40
2023-05-10T17:02:06.176Z,1.30
2023-05-10T17:04:35.178Z,1.40
2023-05-10T17:07:04.010Z,1.50
2023-05-10T17:09:32.947Z,1.40
2023-05-10T17:12:01.024Z,1.70
2023-05-10T17:14:29.125Z,1.40
2023-05-10T17:16:57.524Z,1.50
2023-05-10T17:19:26.431Z,1.40
2023-05-10T17:21:54.543Z,1.50
2023-05-10T17:24:22.573Z,1.30
2023-05-10T17:26:50.790Z,1.40
2023-05-10T17:29:21.819Z,1.60
2023-05-10T17:31:56.694Z,1.50
2023-05-10T17:34:25.327Z,1.70
2023-05-10T17:36:53.758Z,1.50
2023-05-10T17:39:21.877Z,1.60
2023-05-10T17:41:50.903Z,1.80
2023-05-10T17:44:19.000Z,1.90
2023-05-10T17:46:47.809Z,1.60
2023-05-10T17:49:16.264Z,1.60
2023-05-10T17:51:48.362Z,2.00
2023-05-10T17:54:16.616Z,1.50
2023-05-10T17:56:44.995Z,1.40
2023-05-10T17:59:12.960Z,1.50
2023-05-10T18:01:41.743Z,2.00
2023-05-10T18:04:09.954Z,1.70
2023-05-10T18:06:38.278Z,1.80
2023-05-10T18:09:07.595Z,1.70
2023-05-10T18:11:36.256Z,1.80
2023-05-10T18:14:04.788Z,1.70
2023-05-10T18:16:33.129Z,1.90
2023-05-10T18:19:01.246Z,1.80
2023-05-10T18:21:29.368Z,1.60
2023-05-10T18:23:57.709Z,1.80
2023-05-10T18:26:26.349Z,2.60
2023-05-10T18:28:54.545Z,2.00
2023-05-10T18:31:23.253Z,2.80
2023-05-10T18:33:51.391Z,2.70
2023-05-10T18:36:19.826Z,2.90
2023-05-10T18:38:47.956Z,3.00
2023-05-10T18:41:16.578Z,3.80
2023-05-10T18:43:45.154Z,3.40
2023-05-10T18:46:13.150Z,3.30
2023-05-10T18:48:41.462Z,3.20
2023-05-10T18:51:10.461Z,3.10
2023-05-10T18:53:38.721Z,3.80
2023-05-10T18:56:07.284Z,4.00
2023-05-10T18:58:35.946Z,3.70
2023-05-10T19:04:36.953Z,2.80
2023-05-10T19:07:05.271Z,3.90
2023-05-10T19:09:33.729Z,5.00
2023-05-10T19:12:01.765Z,5.10
2023-05-10T19:14:31.745Z,4.90
2023-05-10T19:17:02.552Z,4.70
2023-05-10T19:19:31.974Z,5.00
2023-05-10T19:21:59.962Z,7.10
2023-05-10T19:24:28.111Z,5.00
2023-05-10T19:26:57.887Z,3.40
2023-05-10T19:29:27.744Z,3.90
2023-05-10T19:31:56.303Z,4.00
2023-05-10T19:34:27.647Z,4.10
2023-05-10T19:36:56.197Z,3.90
2023-05-10T19:39:24.338Z,5.00
2023-05-10T19:41:52.826Z,5.10
2023-05-10T19:44:21.352Z,4.60
2023-05-10T19:46:49.559Z,7.40
2023-05-10T19:49:18.061Z,7.50
2023-05-10T19:51:46.655Z,7.10
2023-05-10T19:54:14.696Z,6.00
2023-05-10T19:56:42.733Z,5.40
2023-05-10T19:59:11.624Z,4.50
2023-05-10T20:01:39.707Z,4.00
2023-05-10T20:04:07.646Z,3.30
2023-05-10T20:06:35.985Z,3.30
2023-05-10T20:09:04.407Z,3.10
2023-05-10T20:11:33.236Z,3.20
2023-05-10T20:14:02.127Z,3.00
2023-05-10T20:16:30.551Z,3.00
2023-05-10T20:18:58.687Z,3.50
2023-05-10T20:21:26.990Z,3.10
2023-05-10T20:23:55.060Z,3.80
2023-05-10T20:26:24.018Z,3.20
2023-05-10T20:28:52.437Z,3.90
2023-05-10T20:31:20.557Z,3.60
2023-05-10T20:33:48.587Z,3.20
2023-05-10T20:36:16.926Z,3.40
2023-05-10T20:38:46.266Z,3.30
2023-05-10T20:41:14.398Z,2.80
2023-05-10T20:43:42.736Z,2.90
2023-05-10T20:46:11.273Z,3.30
2023-05-10T20:48:39.505Z,3.20
2023-05-10T20:51:08.189Z,3.20
2023-05-10T20:53:36.393Z,2.60
2023-05-10T20:56:04.683Z,3.40
2023-05-10T20:58:32.781Z,3.20
2023-05-10T21:01:02.053Z,3.40
2023-05-10T21:03:30.068Z,3.30
2023-05-10T21:05:58.061Z,3.20
2023-05-10T21:08:26.114Z,3.60
2023-05-10T21:10:54.456Z,3.30
2023-05-10T21:13:23.228Z,3.40
2023-05-10T21:15:51.419Z,2.80
2023-05-10T21:18:19.604Z,3.00
2023-05-10T21:20:47.591Z,3.60
2023-05-10T21:23:15.735Z,3.60
2023-05-10T21:25:44.162Z,3.00
2023-05-10T21:28:12.329Z,2.80
2023-05-10T21:30:40.386Z,3.40
2023-05-10T21:33:08.520Z,3.40
2023-05-10T21:35:39.469Z,3.00
2023-05-10T21:38:07.659Z,3.00
2023-05-10T21:40:36.411Z,3.20
2023-05-10T21:43:04.854Z,2.90
2023-05-10T21:45:34.333Z,3.00
2023-05-10T21:48:02.644Z,3.50
2023-05-10T21:50:31.829Z,3.20
2023-05-10T21:52:59.784Z,3.50
2023-05-10T21:55:28.057Z,3.30
2023-05-10T21:57:56.100Z,3.40
2023-05-10T22:00:24.523Z,3.50
2023-05-10T22:02:52.634Z,3.60
2023-05-10T22:05:21.698Z,3.40
2023-05-10T22:07:49.715Z,3.30
2023-05-10T22:10:18.110Z,2.90
2023-05-10T22:12:46.294Z,3.10
2023-05-10T22:15:14.372Z,2.90
2023-05-10T22:17:42.603Z,3.40
2023-05-10T22:20:10.777Z,3.20
2023-05-10T22:22:38.771Z,2.80
2023-05-10T22:25:08.023Z,3.10
2023-05-10T22:27:36.252Z,3.60
2023-05-10T22:30:05.123Z,2.90
2023-05-10T22:32:33.200Z,3.00
2023-05-10T22:35:01.234Z,3.30
2023-05-10T22:37:29.239Z,2.70
2023-05-10T22:39:57.479Z,3.00
2023-05-10T22:42:25.779Z,2.70
2023-05-10T22:44:53.890Z,3.40
2023-05-10T22:47:21.837Z,3.20
2023-05-10T22:49:49.853Z,3.30
2023-05-10T22:52:17.934Z,3.40
2023-05-10T22:54:45.990Z,3.30
2023-05-10T22:57:14.082Z,2.80
2023-05-10T22:59:42.537Z,3.90
2023-05-10T23:02:10.732Z,2.90
2023-05-10T23:04:38.767Z,3.50
2023-05-10T23:07:08.165Z,3.60
2023-05-10T23:09:36.476Z,2.90
2023-05-10T23:12:07.107Z,3.30
2023-05-10T23:14:35.079Z,2.90
2023-05-10T23:17:03.245Z,3.30
2023-05-10T23:19:31.415Z,3.20
2023-05-10T23:22:02.127Z,3.20
2023-05-10T23:24:30.118Z,3.20
2023-05-10T23:26:58.091Z,3.20
2023-05-10T23:29:26.862Z,2.80
2023-05-10T23:31:54.842Z,3.20
2023-05-10T23:34:23.376Z,2.70
2023-05-10T23:36:51.767Z,3.00
2023-05-10T23:39:21.121Z,3.10
2023-05-10T23:41:49.604Z,3.10
2023-05-10T23:44:17.680Z,3.20
2023-05-10T23:46:45.956Z,2.40
2023-05-10T23:49:13.977Z,2.80
2023-05-10T23:51:43.217Z,2.80
2023-05-10T23:54:11.186Z,3.40
2023-05-10T23:56:39.280Z,3.00
2023-05-10T23:59:09.436Z,3.10
